Depoe Bay, OR

1:41 PM PST on February 21, 2017 (GMT -0800)
StoneBridge | | Change Station

Elev 115 ft 44.81 °N, 124.05 °W | Updated 14 seconds ago

Overcast
Overcast
46.6 °F
Feels Like 45 °F
N
4.0
Wind Variable Wind from NNE
Gusts 4.9 mph

Today
High -- | Low -- °F
--% Chance of Precip.
Yesterday
High -- | Low -- °F
Precip. -- in
Pressure 30.07 in
Visibility 7.0 miles
Clouds Mostly Cloudy 1100 ft
Overcast 2600 ft
Windchill 45 °F
Dew Point 39 °F
Humidity 75%
Rainfall 0.76 in
Snow Depth Not available.
7:06 AM 5:53 PM
Waning Crescent, 22% visible
METAR KONP 212135Z AUTO 34010KT 7SM DZ BKN011 OVC026 07/05 A3007 RMK AO2
Pressure 30.07 in
Visibility 7.0 miles
Clouds Mostly Cloudy 1100 ft
Overcast 2600 ft
Windchill 45 °F
Dew Point 39 °F
Humidity 75%
Rainfall 0.76 in
Snow Depth Not available.
7:06 AM 5:53 PM
Waning Crescent, 22% visible
METAR KONP 212135Z AUTO 34010KT 7SM DZ BKN011 OVC026 07/05 A3007 RMK AO2

Get Your Daily Forecast Email!

Thanks for signing up!

Be on the lookout for a verification email in your inbox.

You'll start receiving the daily forecast at 8 AM.

×

10-Day Weather Forecast

Almanac

Astronomy

Feb. 21, 2017 Rise Set
Actual Time
Civil Twilight
Nautical Twilight
Astronomical Twilight
Moon
Length of Visible Light
Length of Day
Tomorrow will be .
, % of the Moon is Illuminated

Today's Extremes

State Highs State Lows

Community

WunderPhotos

Upload Photos

1,962,540 photos uploaded!

WunderBlog® & News

Nearby

Air Quality

  Air Quality AQ Index Pollutant
Not available.

Snow Depth

Station Depth Elevation

Earthquake Activity

City Distance Mag. Time & Date
Minimum magnitude displayed is 2.5.

Coastal Water Temperatures

Place Temperature

Stations

Nearby Weather Stations

Station Location Temp. Windchill Dew Point Humidity Wind Precip. Elev Updated Type
                   

Watches & Warnings

Small Craft for Winds Advisory
Issued: 8:36 AM PST Feb. 21, 2017 – National Weather Service

... Small Craft Advisory for winds remains in effect until 4 PM
PST this afternoon...

* winds... out of the north at 20 to 25 kt with gusts to 30 kt.

Precautionary/preparedness actions...

A Small Craft Advisory for wind means that wind speeds of 21 to
33 knots are expected. Inexperienced mariners... especially those
operating smaller vessels should avoid navigating in these
conditions.




Http://www.Weather.Gov/Portland